Time;durP1;ratioP1;P1;durP2;ratioP2;P2;SDS_P1;SDS_P2;PMS_P1;PMS_P2;Temp;Humidity;BMP_temperature;BMP_pressure;BME280_temperature;BME280_humidity;BME280_pressure;Samples;Min_cycle;Max_cycle;Signal;HPM_P1;HPM_P2
2024/02/18 00:00:40;;;;;;;;;;;;;;;4.71;60.19;97135.50;4954154;28;20192;-66
2024/02/18 00:03:06;;;;;;;;;;;;;;;4.68;63.33;97131.28;4953792;28;20556;-66
2024/02/18 00:05:33;;;;;;;;;;;;;;;4.51;57.41;97131.56;4952571;28;20029;-66
2024/02/18 00:07:59;;;;;;;;;;;;;;;4.39;62.87;97126.16;4954058;28;19974;-69
2024/02/18 00:10:24;;;;;;;;;;;;;;;4.19;59.64;97125.69;4953919;28;20106;-68
2024/02/18 00:12:49;;;;;;;;;;;;;;;4.28;64.57;97131.28;4954121;28;20073;-68
2024/02/18 00:15:15;;;;;;;;;;;;;;;4.37;63.41;97120.16;4953955;28;20099;-68
2024/02/18 00:17:40;;;;;;;;;;;;;;;4.53;60.08;97127.03;4953234;28;19933;-69
2024/02/18 00:20:05;;;;;;;;;;;;;;;4.58;59.06;97127.56;4951732;28;19926;-68
2024/02/18 00:22:31;;;;;;;;;;;;;;;4.63;61.03;97122.81;4953392;28;20346;-68
2024/02/18 00:24:56;;;;;;;;;;;;;;;4.63;60.66;97122.81;4954174;28;20439;-68
2024/02/18 00:27:21;;;;;;;;;;;;;;;4.62;59.34;97110.59;4953945;28;19973;-69
2024/02/18 00:29:46;;;;;;;;;;;;;;;4.60;57.85;97109.00;4951894;28;20200;-68
2024/02/18 00:32:12;;;;;;;;;;;;;;;4.58;57.71;97109.09;4951965;28;19964;-66
2024/02/18 00:34:37;;;;;;;;;;;;;;;4.58;57.75;97111.75;4941361;28;19992;-67
2024/02/18 00:37:02;;;;;;;;;;;;;;;4.59;57.96;97108.16;4955133;28;20318;-67
2024/02/18 00:39:27;;;;;;;;;;;;;;;4.66;60.04;97104.16;4954537;28;20001;-67
2024/02/18 00:41:53;;;;;;;;;;;;;;;4.41;55.07;97111.09;4950698;28;20370;-68
2024/02/18 00:44:23;;;;;;;;;;;;;;;4.35;57.33;97102.75;4954022;28;20036;-68
2024/02/18 00:46:48;;;;;;;;;;;;;;;4.23;55.54;97107.88;4954536;28;20072;-69
2024/02/18 00:49:13;;;;;;;;;;;;;;;4.13;56.86;97096.25;4954181;28;20276;-67
2024/02/18 00:51:38;;;;;;;;;;;;;;;4.07;59.01;97092.22;4955548;28;20241;-69
2024/02/18 00:54:04;;;;;;;;;;;;;;;4.04;58.79;97090.63;4953563;28;19960;-67
2024/02/18 00:56:29;;;;;;;;;;;;;;;4.07;60.51;97097.50;4954505;28;19972;-67
2024/02/18 00:58:54;;;;;;;;;;;;;;;4.00;57.86;97091.78;4953643;28;19980;-69
2024/02/18 01:01:19;;;;;;;;;;;;;;;4.01;59.51;97085.56;4954023;28;20708;-67
2024/02/18 01:03:45;;;;;;;;;;;;;;;3.85;56.32;97085.72;4953853;28;20082;-67
2024/02/18 01:06:10;;;;;;;;;;;;;;;3.86;59.23;97081.28;4946332;28;20303;-68
2024/02/18 01:08:36;;;;;;;;;;;;;;;3.90;59.06;97077.50;4955600;28;20351;-68
2024/02/18 01:11:01;;;;;;;;;;;;;;;3.91;58.60;97085.31;4957740;28;19965;-67
2024/02/18 01:13:26;;;;;;;;;;;;;;;3.96;60.44;97076.25;4957037;28;20293;-68
2024/02/18 01:15:52;;;;;;;;;;;;;;;3.93;59.29;97072.91;4957672;28;19961;-67
2024/02/18 01:18:17;;;;;;;;;;;;;;;3.86;58.82;97079.50;4957181;28;19980;-66
2024/02/18 01:20:42;;;;;;;;;;;;;;;3.82;57.90;97080.66;4957165;28;20025;-66
2024/02/18 01:23:07;;;;;;;;;;;;;;;3.75;57.71;97071.44;4956688;28;19978;-66
2024/02/18 01:25:33;;;;;;;;;;;;;;;3.76;58.19;97078.41;4957065;28;20343;-66
2024/02/18 01:27:58;;;;;;;;;;;;;;;3.80;61.09;97074.63;4957255;28;19933;-66
2024/02/18 01:30:23;;;;;;;;;;;;;;;3.76;61.39;97078.41;4956958;28;19929;-66
2024/02/18 01:32:48;;;;;;;;;;;;;;;3.78;61.24;97077.34;4961886;28;19969;-66
2024/02/18 01:35:14;;;;;;;;;;;;;;;3.77;61.46;97080.09;4956458;28;19926;-66
2024/02/18 01:37:39;;;;;;;;;;;;;;;3.73;61.52;97074.19;4956698;28;20036;-66
2024/02/18 01:40:06;;;;;;;;;;;;;;;3.87;61.02;97073.28;4957075;28;20485;-66
2024/02/18 01:42:31;;;;;;;;;;;;;;;3.91;60.55;97071.31;4955378;28;19937;-66
2024/02/18 01:44:56;;;;;;;;;;;;;;;3.92;61.34;97067.72;4957228;28;19926;-66
2024/02/18 01:47:22;;;;;;;;;;;;;;;4.01;58.89;97069.75;4956701;28;20040;-66
2024/02/18 01:49:48;;;;;;;;;;;;;;;3.96;57.32;97071.84;4943326;28;19954;-66
2024/02/18 01:52:13;;;;;;;;;;;;;;;4.07;60.16;97081.66;4971384;28;19922;-66
2024/02/18 01:54:38;;;;;;;;;;;;;;;4.00;58.72;97080.38;4971374;28;20406;-66
2024/02/18 01:57:06;;;;;;;;;;;;;;;4.11;58.84;97079.69;4956733;28;19969;-66
2024/02/18 01:59:31;;;;;;;;;;;;;;;4.29;61.36;97075.00;4957363;28;20437;-66
2024/02/18 02:01:56;;;;;;;;;;;;;;;4.42;59.31;97075.03;4970948;28;19928;-66
2024/02/18 02:04:22;;;;;;;;;;;;;;;4.54;59.22;97071.56;4970654;28;19976;-66
2024/02/18 02:06:49;;;;;;;;;;;;;;;4.66;59.84;97064.56;4952721;28;20549;-66
2024/02/18 02:09:14;;;;;;;;;;;;;;;4.75;57.84;97052.56;4970572;28;19922;-66
2024/02/18 02:11:39;;;;;;;;;;;;;;;4.73;59.18;97058.91;4971347;28;19921;-65
2024/02/18 02:14:04;;;;;;;;;;;;;;;4.77;60.28;97052.44;4956265;28;20300;-66
2024/02/18 02:16:30;;;;;;;;;;;;;;;4.71;60.53;97044.03;4956971;28;20378;-65
2024/02/18 02:18:56;;;;;;;;;;;;;;;4.69;60.09;97043.28;4968760;28;19933;-66
2024/02/18 02:21:21;;;;;;;;;;;;;;;4.77;59.10;97040.13;4955487;28;20004;-66
2024/02/18 02:23:47;;;;;;;;;;;;;;;4.85;61.14;97044.84;4955945;28;19926;-65
2024/02/18 02:26:13;;;;;;;;;;;;;;;4.95;61.80;97032.72;4956349;28;19922;-65
2024/02/18 02:28:40;;;;;;;;;;;;;;;4.97;60.12;97030.78;4956505;28;19938;-68
2024/02/18 02:31:05;;;;;;;;;;;;;;;4.97;60.09;97033.44;4970884;28;19929;-68
2024/02/18 02:33:30;;;;;;;;;;;;;;;5.04;61.35;97027.72;4955154;28;19926;-67
2024/02/18 02:35:56;;;;;;;;;;;;;;;5.06;59.76;97016.13;4959818;28;19956;-68
2024/02/18 02:38:21;;;;;;;;;;;;;;;5.12;59.75;97017.50;4957536;28;19926;-68
2024/02/18 02:40:46;;;;;;;;;;;;;;;5.18;59.73;97022.34;4953141;28;19936;-67
2024/02/18 02:43:12;;;;;;;;;;;;;;;5.21;58.35;97027.38;4953048;28;19973;-67
2024/02/18 02:45:37;;;;;;;;;;;;;;;5.32;60.27;97020.50;4952398;28;19929;-68
2024/02/18 02:48:03;;;;;;;;;;;;;;;5.34;59.58;97021.25;4951610;28;20391;-67
2024/02/18 02:50:28;;;;;;;;;;;;;;;5.41;61.07;97014.56;4953694;28;19926;-67
2024/02/18 02:52:53;;;;;;;;;;;;;;;5.47;60.01;97019.41;4955319;28;19961;-67
2024/02/18 02:55:19;;;;;;;;;;;;;;;5.53;59.22;97025.19;4954871;28;19926;-67
2024/02/18 02:57:44;;;;;;;;;;;;;;;5.60;60.28;97019.38;4952957;28;19930;-68
2024/02/18 03:00:10;;;;;;;;;;;;;;;5.63;59.91;97022.72;4952573;28;20180;-67
2024/02/18 03:02:36;;;;;;;;;;;;;;;5.63;58.19;97023.56;4967559;28;19972;-67
2024/02/18 03:05:02;;;;;;;;;;;;;;;5.70;58.98;97018.69;4952766;28;19982;-67
2024/02/18 03:07:27;;;;;;;;;;;;;;;5.77;59.89;97021.72;4952509;28;20136;-68
2024/02/18 03:09:53;;;;;;;;;;;;;;;5.80;60.19;97017.06;4954840;28;19948;-67
2024/02/18 03:12:18;;;;;;;;;;;;;;;5.87;60.03;97020.06;4955502;28;19941;-67
2024/02/18 03:14:44;;;;;;;;;;;;;;;5.91;59.79;97015.44;4954918;28;20070;-68
2024/02/18 03:17:09;;;;;;;;;;;;;;;5.91;60.06;97013.59;4945693;28;20687;-67
2024/02/18 03:19:34;;;;;;;;;;;;;;;5.94;58.28;97010.75;4950178;28;19927;-68
2024/02/18 03:22:00;;;;;;;;;;;;;;;5.91;57.69;96999.56;4945406;28;19930;-67
2024/02/18 03:24:25;;;;;;;;;;;;;;;5.90;57.31;97009.28;4954307;28;19938;-67
2024/02/18 03:26:50;;;;;;;;;;;;;;;5.94;57.42;97004.59;4954898;28;20473;-68
2024/02/18 03:29:15;;;;;;;;;;;;;;;5.98;57.58;97001.63;4953056;28;19933;-67
2024/02/18 03:31:41;;;;;;;;;;;;;;;6.02;57.86;96996.09;4954621;28;19922;-67
2024/02/18 03:34:06;;;;;;;;;;;;;;;6.04;57.56;96994.19;4944492;28;19932;-68
2024/02/18 03:36:31;;;;;;;;;;;;;;;6.08;58.21;96990.34;4956738;28;20247;-67
2024/02/18 03:38:56;;;;;;;;;;;;;;;6.11;58.26;96984.81;4954396;28;20063;-67
2024/02/18 03:41:22;;;;;;;;;;;;;;;6.17;59.17;96979.09;4952903;28;20474;-67
2024/02/18 03:43:47;;;;;;;;;;;;;;;6.18;58.30;96972.84;4953217;28;19930;-67
2024/02/18 03:46:13;;;;;;;;;;;;;;;6.23;59.43;96981.25;4951772;28;19922;-68
2024/02/18 03:48:38;;;;;;;;;;;;;;;6.23;58.59;96975.97;4951837;28;20071;-68
2024/02/18 03:51:03;;;;;;;;;;;;;;;6.23;58.50;96973.31;4954601;28;19926;-67
2024/02/18 03:53:28;;;;;;;;;;;;;;;6.20;58.00;96967.44;4953940;28;20522;-67
2024/02/18 03:55:54;;;;;;;;;;;;;;;6.19;57.29;96973.69;4949433;28;20017;-68
2024/02/18 03:58:19;;;;;;;;;;;;;;;6.29;59.55;96976.47;4954541;28;20020;-68
2024/02/18 04:00:46;;;;;;;;;;;;;;;6.29;58.38;96968.53;4953899;28;20411;-67
2024/02/18 04:03:14;;;;;;;;;;;;;;;6.29;57.82;96966.72;4952942;28;20438;-67
2024/02/18 04:05:40;;;;;;;;;;;;;;;6.31;57.87;96958.66;4964455;28;19934;-67
2024/02/18 04:08:05;;;;;;;;;;;;;;;6.30;57.23;96952.56;4946674;28;20293;-67
2024/02/18 04:10:31;;;;;;;;;;;;;;;6.34;57.87;96959.28;4954396;28;19977;-67
2024/02/18 04:12:56;;;;;;;;;;;;;;;6.32;57.02;96949.78;4954529;28;19980;-68
2024/02/18 04:15:22;;;;;;;;;;;;;;;6.29;56.51;96945.56;4953120;28;20442;-68
2024/02/18 04:17:47;;;;;;;;;;;;;;;6.26;57.16;96945.81;4950723;28;19929;-67
2024/02/18 04:20:13;;;;;;;;;;;;;;;6.25;56.88;96939.66;4949160;28;19926;-68
2024/02/18 04:22:38;;;;;;;;;;;;;;;6.22;55.30;96936.41;4944813;28;19926;-67
2024/02/18 04:25:03;;;;;;;;;;;;;;;6.19;55.07;96934.03;4952949;28;19936;-68
2024/02/18 04:27:29;;;;;;;;;;;;;;;6.13;55.69;96935.31;4942605;28;19923;-68
2024/02/18 04:29:54;;;;;;;;;;;;;;;6.11;56.43;96940.72;4946437;28;20627;-67
2024/02/18 04:32:20;;;;;;;;;;;;;;;6.08;55.62;96930.38;4941866;28;20404;-67
2024/02/18 04:34:45;;;;;;;;;;;;;;;6.00;54.04;96930.13;4953414;28;20437;-68
2024/02/18 04:37:10;;;;;;;;;;;;;;;6.02;56.96;96928.19;4953747;28;19956;-67
2024/02/18 04:39:36;;;;;;;;;;;;;;;6.03;56.33;96934.34;4949746;28;19927;-67
2024/02/18 04:42:01;;;;;;;;;;;;;;;5.99;56.29;96933.75;4952570;28;19933;-67
2024/02/18 04:44:26;;;;;;;;;;;;;;;5.97;56.53;96931.22;4953434;28;19938;-67
2024/02/18 04:46:52;;;;;;;;;;;;;;;5.90;55.35;96932.63;4957137;28;20020;-67
2024/02/18 04:49:17;;;;;;;;;;;;;;;5.85;56.31;96926.84;4954368;28;20403;-66
2024/02/18 04:51:42;;;;;;;;;;;;;;;5.89;57.49;96925.66;4957405;28;20363;-65
2024/02/18 04:54:07;;;;;;;;;;;;;;;5.92;58.68;96921.94;4947666;28;20276;-65
2024/02/18 04:56:33;;;;;;;;;;;;;;;5.74;55.67;96917.94;4947069;28;19933;-65
2024/02/18 04:58:58;;;;;;;;;;;;;;;5.74;56.23;96920.56;4953874;28;20411;-66
2024/02/18 05:01:23;;;;;;;;;;;;;;;5.76;56.43;96916.97;4951816;28;19933;-66
2024/02/18 05:03:48;;;;;;;;;;;;;;;5.65;56.85;96910.69;4948274;28;19941;-66
2024/02/18 05:06:14;;;;;;;;;;;;;;;5.74;56.04;96910.00;4952789;28;20047;-66
2024/02/18 05:08:39;;;;;;;;;;;;;;;5.76;57.01;96904.59;4949835;28;19930;-65
2024/02/18 05:11:04;;;;;;;;;;;;;;;5.67;55.81;96897.34;4948482;28;19930;-65
2024/02/18 05:13:30;;;;;;;;;;;;;;;5.53;56.89;96890.47;4955103;28;19993;-66
2024/02/18 05:15:56;;;;;;;;;;;;;;;5.47;56.19;96903.19;4948842;28;20107;-66
2024/02/18 05:18:21;;;;;;;;;;;;;;;5.14;55.16;96895.94;4951064;28;19961;-66
2024/02/18 05:20:46;;;;;;;;;;;;;;;5.20;57.32;96890.19;4955218;28;20209;-66
2024/02/18 05:23:12;;;;;;;;;;;;;;;5.29;56.99;96888.69;4956776;28;20374;-65
2024/02/18 05:25:38;;;;;;;;;;;;;;;5.25;57.16;96889.88;4956972;28;19953;-66
2024/02/18 05:28:04;;;;;;;;;;;;;;;5.12;56.67;96889.91;4947830;28;20417;-66
2024/02/18 05:30:29;;;;;;;;;;;;;;;5.13;57.88;96878.44;4955903;28;19964;-66
2024/02/18 05:32:55;;;;;;;;;;;;;;;5.04;58.57;96882.53;4953542;28;20371;-66
2024/02/18 05:35:20;;;;;;;;;;;;;;;5.03;56.56;96888.78;4946930;28;19967;-66
2024/02/18 05:37:45;;;;;;;;;;;;;;;5.04;58.81;96879.91;4954911;28;20070;-66
2024/02/18 05:40:10;;;;;;;;;;;;;;;5.10;58.03;96876.81;4956491;28;20047;-65
2024/02/18 05:42:36;;;;;;;;;;;;;;;4.88;57.43;96875.75;4953525;28;20413;-66
2024/02/18 05:45:02;;;;;;;;;;;;;;;5.01;58.90;96882.75;4953596;28;20009;-66
2024/02/18 05:47:28;;;;;;;;;;;;;;;2.27;62.38;96882.31;4948064;28;20545;-66
2024/02/18 05:49:53;;;;;;;;;;;;;;;3.54;62.08;96877.00;4950369;28;19960;-65
2024/02/18 05:52:18;;;;;;;;;;;;;;;3.35;63.33;96880.81;4956243;28;20473;-65
2024/02/18 05:54:43;;;;;;;;;;;;;;;3.99;61.43;96878.41;4947858;28;19936;-66
2024/02/18 05:57:09;;;;;;;;;;;;;;;4.31;59.77;96872.69;4947847;28;20539;-66
2024/02/18 05:59:34;;;;;;;;;;;;;;;4.38;58.65;96871.31;4956920;28;19922;-67
2024/02/18 06:01:59;;;;;;;;;;;;;;;4.03;60.44;96874.63;4953950;28;20004;-67
2024/02/18 06:04:24;;;;;;;;;;;;;;;4.38;60.55;96870.47;4944427;28;19935;-68
2024/02/18 06:06:50;;;;;;;;;;;;;;;4.49;60.43;96867.91;4951312;28;19934;-67
2024/02/18 06:09:16;;;;;;;;;;;;;;;4.49;60.32;96853.91;4954419;28;19926;-67
2024/02/18 06:11:41;;;;;;;;;;;;;;;4.50;59.25;96845.03;4947728;28;19926;-68
2024/02/18 06:14:06;;;;;;;;;;;;;;;4.37;59.35;96852.97;4952908;28;19926;-68
2024/02/18 06:16:32;;;;;;;;;;;;;;;4.52;58.90;96854.50;4955251;28;20403;-67
2024/02/18 06:18:57;;;;;;;;;;;;;;;4.55;58.04;96851.66;4946449;28;19926;-67
2024/02/18 06:21:22;;;;;;;;;;;;;;;4.52;58.91;96846.59;4946132;28;20329;-68
2024/02/18 06:23:47;;;;;;;;;;;;;;;4.43;57.85;96855.19;4955709;28;20008;-67
2024/02/18 06:26:13;;;;;;;;;;;;;;;4.35;56.74;96850.44;4956245;28;19993;-67
2024/02/18 06:28:38;;;;;;;;;;;;;;;4.28;57.72;96855.31;4956159;28;20288;-67
2024/02/18 06:31:03;;;;;;;;;;;;;;;4.14;58.25;96851.00;4955003;28;20273;-68
2024/02/18 06:33:29;;;;;;;;;;;;;;;4.22;58.50;96846.97;4954382;28;19922;-67
2024/02/18 06:35:54;;;;;;;;;;;;;;;4.29;58.58;96850.88;4958902;28;19921;-67
2024/02/18 06:38:20;;;;;;;;;;;;;;;4.23;57.83;96838.13;4959146;28;19925;-67
2024/02/18 06:40:45;;;;;;;;;;;;;;;4.24;57.83;96834.53;4955769;28;19930;-67
2024/02/18 06:43:10;;;;;;;;;;;;;;;4.17;58.85;96837.59;4952251;28;19972;-68
2024/02/18 06:45:35;;;;;;;;;;;;;;;4.09;59.89;96839.09;4954740;28;19926;-68
2024/02/18 06:48:01;;;;;;;;;;;;;;;4.02;59.03;96831.59;4956060;28;19945;-67
2024/02/18 06:50:26;;;;;;;;;;;;;;;4.03;60.26;96833.31;4955429;28;19933;-67
2024/02/18 06:52:51;;;;;;;;;;;;;;;4.14;58.78;96827.28;4955910;28;20302;-67
2024/02/18 06:55:16;;;;;;;;;;;;;;;4.16;59.20;96828.03;4955794;28;19993;-67
2024/02/18 06:57:42;;;;;;;;;;;;;;;4.15;59.38;96826.31;4955365;28;20186;-67
2024/02/18 07:00:08;;;;;;;;;;;;;;;4.17;58.40;96818.31;4955114;28;20564;-67
2024/02/18 07:02:33;;;;;;;;;;;;;;;4.16;58.29;96819.25;4955177;28;19930;-68
2024/02/18 07:04:59;;;;;;;;;;;;;;;4.16;58.99;96822.75;4953359;28;19934;-67
2024/02/18 07:07:25;;;;;;;;;;;;;;;4.15;59.18;96831.59;4951308;28;19929;-68
2024/02/18 07:09:50;;;;;;;;;;;;;;;4.14;59.84;96821.16;4955347;28;20327;-65
2024/02/18 07:12:15;;;;;;;;;;;;;;;4.01;60.00;96814.09;4955405;28;19926;-65
2024/02/18 07:14:40;;;;;;;;;;;;;;;4.04;57.69;96807.78;4955028;28;20152;-66
2024/02/18 07:17:05;;;;;;;;;;;;;;;4.23;58.91;96802.06;4955587;28;20032;-66
2024/02/18 07:19:31;;;;;;;;;;;;;;;4.39;58.72;96801.78;4955096;28;19922;-66
2024/02/18 07:21:56;;;;;;;;;;;;;;;4.41;59.01;96804.31;4955300;28;20319;-65
2024/02/18 07:24:21;;;;;;;;;;;;;;;4.45;58.21;96801.38;4954088;28;19957;-65
2024/02/18 07:26:47;;;;;;;;;;;;;;;4.40;59.36;96800.88;4955586;28;20123;-66
2024/02/18 07:29:12;;;;;;;;;;;;;;;4.55;58.93;96806.81;4954258;28;19974;-66
2024/02/18 07:31:38;;;;;;;;;;;;;;;4.13;58.49;96799.25;4955259;28;20402;-65
2024/02/18 07:34:04;;;;;;;;;;;;;;;4.26;57.77;96803.63;4954651;28;20342;-66
2024/02/18 07:36:30;;;;;;;;;;;;;;;4.27;59.49;96800.03;4962742;28;19922;-66
2024/02/18 07:38:56;;;;;;;;;;;;;;;4.38;56.95;96800.13;4956885;28;19965;-65
2024/02/18 07:41:23;;;;;;;;;;;;;;;2.00;62.44;96809.50;4954321;28;20017;-65
2024/02/18 07:43:49;;;;;;;;;;;;;;;3.55;61.58;96802.31;4955032;28;19933;-66
2024/02/18 07:46:16;;;;;;;;;;;;;;;2.48;64.13;96808.31;4953334;28;20469;-66
2024/02/18 07:48:41;;;;;;;;;;;;;;;3.22;63.01;96801.81;4954962;28;19969;-65
2024/02/18 07:51:06;;;;;;;;;;;;;;;3.62;58.79;96803.59;4954832;28;19929;-64
2024/02/18 07:53:31;;;;;;;;;;;;;;;3.41;61.42;96803.22;4954973;28;19930;-66
2024/02/18 07:55:57;;;;;;;;;;;;;;;3.05;60.42;96800.31;4954711;28;19926;-65
2024/02/18 07:58:22;;;;;;;;;;;;;;;3.47;60.69;96799.38;4954606;28;19968;-66
2024/02/18 08:00:47;;;;;;;;;;;;;;;3.76;59.61;96788.63;4953836;28;19922;-66
2024/02/18 08:03:12;;;;;;;;;;;;;;;3.53;60.16;96788.41;4954324;28;19932;-66
2024/02/18 08:05:38;;;;;;;;;;;;;;;4.33;58.54;96786.44;4946684;28;20181;-65
2024/02/18 08:08:03;;;;;;;;;;;;;;;4.08;59.83;96774.97;4953960;28;20605;-65
2024/02/18 08:10:28;;;;;;;;;;;;;;;4.33;58.57;96781.97;4954408;28;20172;-65
2024/02/18 08:12:54;;;;;;;;;;;;;;;3.87;57.55;96783.44;4954555;28;19933;-65
2024/02/18 08:15:19;;;;;;;;;;;;;;;3.60;60.74;96778.31;4953858;28;20390;-65
2024/02/18 08:17:44;;;;;;;;;;;;;;;4.32;58.41;96782.13;4940950;28;20316;-66
2024/02/18 08:20:10;;;;;;;;;;;;;;;4.75;58.59;96770.22;4954952;28;19977;-66
2024/02/18 08:22:35;;;;;;;;;;;;;;;4.38;58.06;96773.75;4954324;28;20029;-65
2024/02/18 08:25:00;;;;;;;;;;;;;;;3.15;59.43;96782.97;4954069;28;19930;-66
2024/02/18 08:27:27;;;;;;;;;;;;;;;3.74;60.20;96775.53;4954404;28;19954;-66
2024/02/18 08:29:52;;;;;;;;;;;;;;;3.26;59.48;96781.38;4953385;28;20434;-65
2024/02/18 08:32:17;;;;;;;;;;;;;;;4.68;58.31;96780.41;4954317;28;19926;-66
2024/02/18 08:34:43;;;;;;;;;;;;;;;4.07;57.24;96775.94;4953829;28;19956;-66
2024/02/18 08:37:08;;;;;;;;;;;;;;;4.15;59.92;96780.69;4963699;28;20211;-66
2024/02/18 08:39:34;;;;;;;;;;;;;;;4.27;58.69;96773.69;4954192;28;19937;-66
2024/02/18 08:41:59;;;;;;;;;;;;;;;2.87;61.67;96762.91;4954411;28;20451;-65
2024/02/18 08:44:24;;;;;;;;;;;;;;;4.51;58.65;96757.03;4951008;28;20156;-66
2024/02/18 08:46:50;;;;;;;;;;;;;;;5.19;57.25;96748.59;4952977;28;20357;-66
2024/02/18 08:49:15;;;;;;;;;;;;;;;3.73;60.56;96741.41;4953578;28;19996;-66
2024/02/18 08:51:40;;;;;;;;;;;;;;;3.89;61.21;96739.41;4953895;28;19919;-65
2024/02/18 08:54:06;;;;;;;;;;;;;;;3.50;60.91;96742.06;4953777;28;20139;-66
2024/02/18 08:56:32;;;;;;;;;;;;;;;4.61;56.50;96738.75;4952916;28;20423;-66
2024/02/18 08:58:57;;;;;;;;;;;;;;;5.14;57.32;96730.44;4953066;28;20008;-66
2024/02/18 09:01:22;;;;;;;;;;;;;;;5.34;56.71;96720.19;4952364;28;19934;-66
2024/02/18 09:03:47;;;;;;;;;;;;;;;5.32;55.36;96722.94;4954404;28;19926;-66
2024/02/18 09:06:13;;;;;;;;;;;;;;;5.66;53.08;96716.00;4952425;28;20376;-66
2024/02/18 09:08:38;;;;;;;;;;;;;;;5.88;54.85;96709.03;4954440;28;19926;-65
2024/02/18 09:11:03;;;;;;;;;;;;;;;5.00;57.06;96704.25;4953566;28;19922;-65
2024/02/18 09:13:29;;;;;;;;;;;;;;;5.74;55.86;96706.50;4954234;28;20120;-66
2024/02/18 09:15:54;;;;;;;;;;;;;;;4.75;58.67;96698.16;4952956;28;19926;-66
2024/02/18 09:18:19;;;;;;;;;;;;;;;4.02;59.36;96704.28;4953817;28;19988;-66
2024/02/18 09:20:44;;;;;;;;;;;;;;;4.13;59.23;96700.84;4953966;28;20405;-65
2024/02/18 09:23:10;;;;;;;;;;;;;;;5.06;54.83;96698.50;4953600;28;19996;-65
2024/02/18 09:25:35;;;;;;;;;;;;;;;4.47;56.29;96700.19;4953035;28;19949;-66
2024/02/18 09:28:00;;;;;;;;;;;;;;;5.43;56.14;96689.56;4953640;28;20412;-66
2024/02/18 09:30:26;;;;;;;;;;;;;;;5.68;52.32;96685.84;4955892;28;20056;-65
2024/02/18 09:32:51;;;;;;;;;;;;;;;5.17;56.22;96669.50;4958062;28;19926;-66
2024/02/18 09:35:17;;;;;;;;;;;;;;;5.58;55.00;96671.69;4956808;28;20445;-65
2024/02/18 09:37:42;;;;;;;;;;;;;;;5.64;55.10;96668.56;4956306;28;19929;-66
2024/02/18 09:40:08;;;;;;;;;;;;;;;6.04;55.12;96650.47;4957091;28;20022;-66
2024/02/18 09:42:34;;;;;;;;;;;;;;;6.24;52.08;96647.06;4956956;28;19949;-66
2024/02/18 09:45:00;;;;;;;;;;;;;;;4.47;53.44;96664.13;4956747;28;20202;-66
2024/02/18 09:47:25;;;;;;;;;;;;;;;5.54;53.55;96660.50;4955167;28;19926;-65
2024/02/18 09:49:50;;;;;;;;;;;;;;;5.58;52.15;96664.59;4956707;28;19976;-66
2024/02/18 09:52:16;;;;;;;;;;;;;;;5.86;51.17;96658.94;4971747;28;20372;-66
2024/02/18 09:54:41;;;;;;;;;;;;;;;4.75;54.68;96651.50;4971217;28;19930;-66
2024/02/18 09:57:07;;;;;;;;;;;;;;;4.57;54.52;96657.22;4956317;28;20036;-66
2024/02/18 09:59:32;;;;;;;;;;;;;;;3.48;58.68;96653.59;4945755;28;20708;-66
2024/02/18 10:01:58;;;;;;;;;;;;;;;4.60;55.27;96653.50;4954046;28;20161;-66
2024/02/18 10:04:25;;;;;;;;;;;;;;;2.10;60.60;96654.75;4955952;28;19922;-66
2024/02/18 10:06:52;;;;;;;;;;;;;;;3.02;59.51;96647.91;4956316;28;19942;-66
2024/02/18 10:09:17;;;;;;;;;;;;;;;2.44;61.44;96641.19;4957059;28;19930;-66
2024/02/18 10:11:42;;;;;;;;;;;;;;;2.53;60.01;96632.69;4956074;28;19962;-66
2024/02/18 10:14:07;;;;;;;;;;;;;;;3.39;59.71;96637.47;4954043;28;19980;-66
2024/02/18 10:16:33;;;;;;;;;;;;;;;4.65;56.06;96624.97;4954149;28;19984;-66
2024/02/18 10:18:58;;;;;;;;;;;;;;;3.51;57.92;96632.31;4955343;28;19926;-66
2024/02/18 10:21:25;;;;;;;;;;;;;;;3.87;58.14;96628.00;4955803;28;19953;-65
2024/02/18 10:23:50;;;;;;;;;;;;;;;4.32;57.14;96610.75;4954085;28;19937;-66
2024/02/18 10:26:16;;;;;;;;;;;;;;;4.47;57.31;96618.44;4955191;28;19965;-66
2024/02/18 10:28:41;;;;;;;;;;;;;;;3.65;59.26;96623.44;4966314;28;19918;-65
2024/02/18 10:31:09;;;;;;;;;;;;;;;3.04;58.12;96631.06;4946987;28;19977;-65
2024/02/18 10:33:35;;;;;;;;;;;;;;;4.16;58.54;96619.78;4953907;28;20600;-65
2024/02/18 10:36:02;;;;;;;;;;;;;;;4.85;56.72;96614.72;4959520;28;19977;-66
2024/02/18 10:38:27;;;;;;;;;;;;;;;5.27;55.55;96616.81;4959035;28;19922;-65
2024/02/18 10:40:55;;;;;;;;;;;;;;;5.22;55.70;96598.72;4955935;28;19977;-66
2024/02/18 10:43:21;;;;;;;;;;;;;;;4.67;53.01;96612.53;4955802;28;19930;-66
2024/02/18 10:45:46;;;;;;;;;;;;;;;5.08;54.42;96597.16;4970045;28;19926;-66
2024/02/18 10:48:11;;;;;;;;;;;;;;;5.25;54.16;96591.50;4955861;28;20057;-66
2024/02/18 10:50:39;;;;;;;;;;;;;;;5.02;52.97;96592.31;4969337;28;19957;-66
2024/02/18 10:53:04;;;;;;;;;;;;;;;4.20;57.03;96599.28;4954290;28;19922;-65
2024/02/18 10:55:35;;;;;;;;;;;;;;;4.82;53.11;96586.75;4954965;28;20394;-66
2024/02/18 10:58:13;;;;;;;;;;;;;;;3.89;56.31;96583.94;4968574;28;19930;-66
2024/02/18 11:00:39;;;;;;;;;;;;;;;3.06;62.75;96585.41;4969856;28;20000;-65
2024/02/18 11:03:34;;;;;;;;;;;;;;;4.55;54.81;96572.09;4953074;28;20310;-65
2024/02/18 11:05:59;;;;;;;;;;;;;;;4.49;56.21;96569.06;4952081;28;20021;-66
2024/02/18 11:08:26;;;;;;;;;;;;;;;4.86;56.12;96549.59;4954101;28;19991;-66
2024/02/18 11:10:51;;;;;;;;;;;;;;;5.29;53.72;96562.09;4951044;28;19926;-66
2024/02/18 11:13:17;;;;;;;;;;;;;;;4.24;54.61;96553.28;4945817;28;19918;-66
2024/02/18 11:15:42;;;;;;;;;;;;;;;3.30;57.70;96562.59;4955264;28;19921;-66
2024/02/18 11:18:09;;;;;;;;;;;;;;;4.55;55.08;96552.75;4953502;28;20450;-66
2024/02/18 11:20:34;;;;;;;;;;;;;;;4.33;57.12;96546.50;4968887;28;20288;-66
2024/02/18 11:22:59;;;;;;;;;;;;;;;4.79;56.53;96543.91;4953275;28;20297;-65
2024/02/18 11:25:24;;;;;;;;;;;;;;;4.67;55.54;96551.84;4968585;28;20374;-66
2024/02/18 11:27:50;;;;;;;;;;;;;;;4.32;57.21;96537.75;4969264;28;19938;-66
2024/02/18 11:30:15;;;;;;;;;;;;;;;5.36;56.15;96525.47;4954354;28;20017;-66
2024/02/18 11:32:41;;;;;;;;;;;;;;;5.22;54.31;96531.84;4955120;28;20038;-66
2024/02/18 11:35:10;;;;;;;;;;;;;;;4.96;54.25;96519.72;4968700;28;19922;-66
2024/02/18 11:37:35;;;;;;;;;;;;;;;4.49;56.32;96519.78;4955615;28;20442;-65
2024/02/18 11:40:07;;;;;;;;;;;;;;;5.02;54.67;96512.25;4954540;28;20073;-66
2024/02/18 11:42:39;;;;;;;;;;;;;;;5.42;52.83;96509.16;4954631;28;19933;-66
2024/02/18 11:45:05;;;;;;;;;;;;;;;4.69;56.27;96498.94;4954517;28;19977;-66
2024/02/18 11:47:31;;;;;;;;;;;;;;;3.90;56.07;96497.81;4949484;28;20476;-66
2024/02/18 11:49:56;;;;;;;;;;;;;;;4.92;54.75;96498.94;4945817;28;20248;-66
2024/02/18 11:52:21;;;;;;;;;;;;;;;4.69;55.46;96491.88;4947515;28;19928;-66
2024/02/18 11:54:47;;;;;;;;;;;;;;;4.19;55.70;96490.38;4954681;28;20009;-66
2024/02/18 11:57:12;;;;;;;;;;;;;;;4.60;55.07;96486.47;4954638;28;20288;-66
2024/02/18 11:59:38;;;;;;;;;;;;;;;4.21;55.14;96489.44;4954727;28;19995;-66
2024/02/18 12:02:03;;;;;;;;;;;;;;;2.47;61.16;96503.44;4953016;28;19949;-66
2024/02/18 12:04:28;;;;;;;;;;;;;;;3.09;59.86;96491.28;4954462;28;20044;-66
2024/02/18 12:06:54;;;;;;;;;;;;;;;3.86;59.48;96489.31;4953900;28;19953;-66
2024/02/18 12:09:25;;;;;;;;;;;;;;;3.72;57.67;96481.59;4953860;28;20198;-66
2024/02/18 12:11:51;;;;;;;;;;;;;;;3.36;57.48;96492.88;4954600;28;19965;-66
2024/02/18 12:14:19;;;;;;;;;;;;;;;4.50;60.30;96475.81;4953957;28;20388;-66
2024/02/18 12:16:45;;;;;;;;;;;;;;;3.42;57.17;96491.59;4953717;28;20049;-65
2024/02/18 12:19:11;;;;;;;;;;;;;;;4.31;56.48;96467.53;4953507;28;19930;-66
2024/02/18 12:21:37;;;;;;;;;;;;;;;4.52;54.78;96474.72;4954367;28;20326;-66
2024/02/18 12:24:03;;;;;;;;;;;;;;;4.09;57.16;96470.94;4954759;28;19936;-65
2024/02/18 12:26:28;;;;;;;;;;;;;;;4.98;55.88;96458.91;4950300;28;20249;-66
2024/02/18 12:28:53;;;;;;;;;;;;;;;5.12;56.51;96454.34;4978258;28;20050;-65
2024/02/18 12:31:19;;;;;;;;;;;;;;;4.62;54.13;96448.47;4954393;28;19936;-66
2024/02/18 12:33:45;;;;;;;;;;;;;;;5.52;55.84;96451.13;4953762;28;19969;-65
2024/02/18 12:36:10;;;;;;;;;;;;;;;4.69;55.67;96436.50;4964059;28;19922;-66
2024/02/18 12:38:35;;;;;;;;;;;;;;;5.44;53.30;96425.31;4954187;28;20422;-66
2024/02/18 12:41:01;;;;;;;;;;;;;;;4.71;54.23;96426.66;4954341;28;19937;-66
2024/02/18 12:43:26;;;;;;;;;;;;;;;5.60;53.12;96408.22;4954162;28;19926;-66
2024/02/18 12:45:52;;;;;;;;;;;;;;;6.04;52.94;96409.91;4953663;28;20206;-65
2024/02/18 12:48:17;;;;;;;;;;;;;;;4.16;54.62;96406.28;4952615;28;20027;-67